createdAt,value
2018-09-15T00:00:04.124Z,14.20
2018-09-15T00:04:06.812Z,14.20
2018-09-15T00:08:09.417Z,14.00
2018-09-15T00:12:11.961Z,14.00
2018-09-15T00:16:14.611Z,14.10
2018-09-15T00:20:17.350Z,14.00
2018-09-15T00:24:19.990Z,14.00
2018-09-15T00:28:22.572Z,14.00
2018-09-15T00:32:25.223Z,14.00
2018-09-15T00:36:27.818Z,14.00
2018-09-15T00:40:30.385Z,13.90
2018-09-15T00:44:33.028Z,14.00
2018-09-15T00:48:35.568Z,13.90
2018-09-15T00:52:38.103Z,13.90
2018-09-15T00:56:40.682Z,14.00
2018-09-15T01:00:43.426Z,13.80
2018-09-15T01:04:52.256Z,13.80
2018-09-15T01:08:54.954Z,13.70
2018-09-15T01:12:57.535Z,13.70
2018-09-15T01:17:00.120Z,13.70
2018-09-15T01:21:02.675Z,13.60
2018-09-15T01:25:05.330Z,13.50
2018-09-15T01:29:07.995Z,13.50
2018-09-15T01:33:10.588Z,13.40
2018-09-15T01:37:13.160Z,13.30
2018-09-15T01:41:15.760Z,13.30
2018-09-15T01:45:18.517Z,13.20
2018-09-15T01:49:21.351Z,13.20
2018-09-15T01:53:24.003Z,13.10
2018-09-15T01:57:27.377Z,13.00
2018-09-15T02:01:30.069Z,13.00
2018-09-15T02:05:32.820Z,13.00
2018-09-15T02:09:35.516Z,12.90
2018-09-15T02:13:38.143Z,12.90
2018-09-15T02:17:40.788Z,12.80
2018-09-15T02:21:43.468Z,12.80
2018-09-15T02:25:46.098Z,12.70
2018-09-15T02:29:48.945Z,12.70
2018-09-15T02:33:51.612Z,12.60
2018-09-15T02:37:54.226Z,12.60
2018-09-15T02:41:56.815Z,12.60
2018-09-15T02:45:59.476Z,12.50
2018-09-15T02:50:02.072Z,12.50
2018-09-15T02:54:04.670Z,12.50
2018-09-15T02:58:07.224Z,12.50
2018-09-15T03:02:09.859Z,12.40
2018-09-15T03:06:12.521Z,12.40
2018-09-15T03:10:15.136Z,12.40
2018-09-15T03:14:17.722Z,12.40
2018-09-15T03:18:20.329Z,12.30
2018-09-15T03:22:23.081Z,12.30
2018-09-15T03:26:25.652Z,12.30
2018-09-15T03:30:28.226Z,12.30
2018-09-15T03:34:30.795Z,12.30
2018-09-15T03:38:33.382Z,12.30
2018-09-15T03:42:35.985Z,12.30
2018-09-15T03:46:38.697Z,12.30
2018-09-15T03:50:41.272Z,12.20
2018-09-15T03:54:43.848Z,12.30
2018-09-15T03:58:46.436Z,12.20
2018-09-15T04:02:49.031Z,12.20
2018-09-15T04:06:52.003Z,12.20
2018-09-15T04:10:54.668Z,12.10
2018-09-15T04:14:57.261Z,12.10
2018-09-15T04:18:59.950Z,12.00
2018-09-15T04:23:02.626Z,11.90
2018-09-15T04:27:05.218Z,11.80
2018-09-15T04:31:07.885Z,11.90
2018-09-15T04:35:10.505Z,11.90
2018-09-15T04:39:13.093Z,12.00
2018-09-15T04:43:15.729Z,11.90
2018-09-15T04:47:18.321Z,11.80
2018-09-15T04:51:20.923Z,11.80
2018-09-15T04:55:23.548Z,11.90
2018-09-15T04:59:26.123Z,11.70
2018-09-15T05:03:28.794Z,11.80
2018-09-15T05:07:31.420Z,11.80
2018-09-15T05:11:34.041Z,11.70
2018-09-15T05:15:36.960Z,11.70
2018-09-15T05:19:39.570Z,11.80
2018-09-15T05:23:42.213Z,11.80
2018-09-15T05:27:44.889Z,11.80
2018-09-15T05:31:47.469Z,11.90
2018-09-15T05:35:50.022Z,12.00
2018-09-15T05:39:52.609Z,12.20
2018-09-15T05:43:55.292Z,12.40
2018-09-15T05:47:57.901Z,12.70
2018-09-15T05:52:00.488Z,12.90
2018-09-15T05:56:03.177Z,13.10
2018-09-15T06:00:05.882Z,13.40
2018-09-15T06:04:08.549Z,13.60
2018-09-15T06:08:11.167Z,13.90
2018-09-15T06:12:13.863Z,13.80
2018-09-15T06:16:16.496Z,14.00
2018-09-15T06:20:19.050Z,14.40
2018-09-15T06:24:21.641Z,14.40
2018-09-15T06:28:24.208Z,14.70
2018-09-15T06:32:26.709Z,14.80
2018-09-15T06:36:29.418Z,15.00
2018-09-15T06:40:32.011Z,15.10
2018-09-15T06:44:34.604Z,15.20
2018-09-15T06:48:37.259Z,15.50
2018-09-15T06:52:40.086Z,15.80
2018-09-15T06:56:42.695Z,15.70
2018-09-15T07:00:45.370Z,15.70
2018-09-15T07:04:47.900Z,16.40
2018-09-15T07:08:50.506Z,16.30
2018-09-15T07:12:53.160Z,16.00
2018-09-15T07:16:55.801Z,16.00
2018-09-15T07:20:58.546Z,15.40
2018-09-15T07:25:01.168Z,16.10
2018-09-15T07:29:03.891Z,16.40
2018-09-15T07:33:06.477Z,16.70
2018-09-15T07:37:09.116Z,17.20
2018-09-15T07:41:11.767Z,17.80
2018-09-15T07:45:14.368Z,17.20
2018-09-15T07:49:16.965Z,17.00
2018-09-15T07:53:19.617Z,16.60
2018-09-15T07:57:22.244Z,16.70
2018-09-15T08:01:24.932Z,16.90
2018-09-15T08:05:27.583Z,17.00
2018-09-15T08:09:30.193Z,17.10
2018-09-15T08:13:32.853Z,17.10
2018-09-15T08:17:35.498Z,17.30
2018-09-15T08:21:38.193Z,17.70
2018-09-15T08:25:40.768Z,17.40
2018-09-15T08:29:43.415Z,17.30
2018-09-15T08:33:46.091Z,17.20
2018-09-15T08:37:48.707Z,17.20
2018-09-15T08:41:51.297Z,17.50
2018-09-15T08:45:54.772Z,17.40
2018-09-15T08:49:57.437Z,17.60
2018-09-15T08:54:00.068Z,18.00
2018-09-15T08:58:02.817Z,18.20
2018-09-15T09:02:09.373Z,18.10
2018-09-15T09:06:11.965Z,18.20
2018-09-15T09:10:14.588Z,18.10
2018-09-15T09:14:17.167Z,18.20
2018-09-15T09:18:19.845Z,18.10
2018-09-15T09:22:22.477Z,18.00
2018-09-15T09:26:25.185Z,18.00
2018-09-15T09:30:27.741Z,18.00
2018-09-15T09:34:30.433Z,18.10
2018-09-15T09:38:33.197Z,18.10
2018-09-15T09:42:35.944Z,18.40
2018-09-15T09:46:38.605Z,18.70
2018-09-15T09:50:41.285Z,19.50
2018-09-15T09:54:44.319Z,19.70
2018-09-15T09:58:47.025Z,19.70
2018-09-15T10:02:49.604Z,19.90
2018-09-15T10:06:52.196Z,19.90
2018-09-15T10:10:54.835Z,20.50
2018-09-15T10:14:57.451Z,20.90
2018-09-15T10:19:00.137Z,20.50
2018-09-15T10:23:02.756Z,20.60
2018-09-15T10:27:05.367Z,20.20
2018-09-15T10:31:08.123Z,20.00
2018-09-15T10:35:10.782Z,19.60
2018-09-15T10:39:13.320Z,19.10
2018-09-15T10:43:15.951Z,19.10
2018-09-15T10:47:18.600Z,19.90
2018-09-15T10:51:21.270Z,20.00
2018-09-15T10:55:23.881Z,19.70
2018-09-15T10:59:26.426Z,19.40
2018-09-15T11:03:28.988Z,19.10
2018-09-15T11:07:31.596Z,18.90
2018-09-15T11:11:34.231Z,18.80
2018-09-15T11:15:36.850Z,18.90
2018-09-15T11:19:39.400Z,18.90
2018-09-15T11:23:42.162Z,18.60
2018-09-15T11:27:44.841Z,18.60
2018-09-15T11:31:47.473Z,18.50
2018-09-15T11:35:50.094Z,18.40
2018-09-15T11:39:52.846Z,18.30
2018-09-15T11:43:55.413Z,18.30
2018-09-15T11:47:58.025Z,18.30
2018-09-15T11:52:00.767Z,18.30
2018-09-15T11:56:03.356Z,18.20
2018-09-15T12:00:06.852Z,18.20
2018-09-15T12:04:09.397Z,18.00
2018-09-15T12:08:11.940Z,17.90
2018-09-15T12:12:14.706Z,17.90
2018-09-15T12:16:17.321Z,18.00
2018-09-15T12:20:19.980Z,18.10
2018-09-15T12:24:22.573Z,18.30
2018-09-15T12:28:25.160Z,18.50
2018-09-15T12:32:27.724Z,18.60
2018-09-15T12:36:30.301Z,18.70
2018-09-15T12:40:32.837Z,18.80
2018-09-15T12:44:35.470Z,18.70
2018-09-15T12:48:38.783Z,18.60
2018-09-15T12:52:41.707Z,18.60
2018-09-15T12:56:44.325Z,18.30
2018-09-15T13:00:46.978Z,18.20
2018-09-15T13:04:49.561Z,18.10
2018-09-15T13:08:52.152Z,18.10
2018-09-15T13:12:54.715Z,18.00
2018-09-15T13:16:57.735Z,17.90
2018-09-15T13:21:00.667Z,18.10
2018-09-15T13:25:03.357Z,18.30
2018-09-15T13:29:05.992Z,19.20
2018-09-15T13:33:08.810Z,19.80
2018-09-15T13:37:11.405Z,19.80
2018-09-15T13:41:13.975Z,19.70
2018-09-15T13:45:16.567Z,19.40
2018-09-15T13:49:19.207Z,19.60
2018-09-15T13:53:21.847Z,19.50
2018-09-15T13:57:24.431Z,19.40
2018-09-15T14:01:26.995Z,19.30
2018-09-15T14:05:29.617Z,19.20
2018-09-15T14:09:43.284Z,19.00
2018-09-15T14:13:34.862Z,19.00
2018-09-15T14:17:37.709Z,19.00
2018-09-15T14:21:40.278Z,19.00
2018-09-15T14:25:42.926Z,19.10
2018-09-15T14:29:46.536Z,19.20
2018-09-15T14:33:50.168Z,19.20
2018-09-15T14:37:52.763Z,19.50
2018-09-15T14:41:55.356Z,19.50
2018-09-15T14:45:58.331Z,19.40
2018-09-15T14:50:01.079Z,19.30
2018-09-15T14:54:03.762Z,19.10
2018-09-15T14:58:06.322Z,19.00
2018-09-15T15:02:09.436Z,19.10
2018-09-15T15:06:12.219Z,19.30
2018-09-15T15:10:14.995Z,19.30
2018-09-15T15:14:17.576Z,19.20
2018-09-15T15:18:21.695Z,19.20
2018-09-15T15:22:24.339Z,19.10
2018-09-15T15:26:27.008Z,19.20
2018-09-15T15:30:29.580Z,19.20
2018-09-15T15:34:32.179Z,19.10
2018-09-15T15:38:34.811Z,19.10
2018-09-15T15:42:37.433Z,19.30
2018-09-15T15:46:40.019Z,19.20
2018-09-15T15:50:42.617Z,19.20
2018-09-15T15:54:45.207Z,19.10
2018-09-15T15:58:47.973Z,19.10
2018-09-15T16:02:50.403Z,18.90
2018-09-15T16:06:53.012Z,18.90
2018-09-15T16:10:55.550Z,18.90
2018-09-15T16:14:58.259Z,18.90
2018-09-15T16:19:00.875Z,18.90
2018-09-15T16:23:03.541Z,18.90
2018-09-15T16:27:06.135Z,18.90
2018-09-15T16:31:08.721Z,18.90
2018-09-15T16:35:11.589Z,18.80
2018-09-15T16:39:14.162Z,18.90
2018-09-15T16:43:16.721Z,18.90
2018-09-15T16:47:19.316Z,18.80
2018-09-15T16:51:22.217Z,18.80
2018-09-15T16:55:24.831Z,18.70
2018-09-15T16:59:27.446Z,18.60
2018-09-15T17:03:30.099Z,18.50
2018-09-15T17:07:32.591Z,18.50
2018-09-15T17:11:35.251Z,18.50
2018-09-15T17:15:37.857Z,18.40
2018-09-15T17:19:40.486Z,18.30
2018-09-15T17:23:43.689Z,18.30
2018-09-15T17:27:46.350Z,18.20
2018-09-15T17:31:48.998Z,18.10
2018-09-15T17:35:51.589Z,17.90
2018-09-15T17:39:54.254Z,17.80
2018-09-15T17:43:56.864Z,17.80
2018-09-15T17:47:59.485Z,17.70
2018-09-15T17:52:02.085Z,17.70
2018-09-15T17:56:04.742Z,17.60
2018-09-15T18:00:07.708Z,17.50
2018-09-15T18:04:10.380Z,17.50
2018-09-15T18:08:12.972Z,17.50
2018-09-15T18:12:15.514Z,17.50
2018-09-15T18:16:18.237Z,17.40
2018-09-15T18:20:20.873Z,17.40
2018-09-15T18:24:23.577Z,17.40
2018-09-15T18:28:26.282Z,17.40
2018-09-15T18:32:29.556Z,17.30
2018-09-15T18:36:32.223Z,17.30
2018-09-15T18:40:34.812Z,17.30
2018-09-15T18:44:37.562Z,17.20
2018-09-15T18:48:40.216Z,17.20
2018-09-15T18:52:42.838Z,17.10
2018-09-15T18:56:45.487Z,17.10
2018-09-15T19:00:48.078Z,17.00
2018-09-15T19:04:50.841Z,16.90
2018-09-15T19:08:53.421Z,16.80
2018-09-15T19:12:56.248Z,16.70
2018-09-15T19:16:58.834Z,16.60
2018-09-15T19:21:01.645Z,16.60
2018-09-15T19:25:04.419Z,16.50
2018-09-15T19:29:07.066Z,16.40
2018-09-15T19:33:09.682Z,16.30
2018-09-15T19:37:12.360Z,16.10
2018-09-15T19:41:15.027Z,16.10
2018-09-15T19:45:17.838Z,16.00
2018-09-15T19:49:20.533Z,15.90
2018-09-15T19:53:23.127Z,15.90
2018-09-15T19:57:25.713Z,15.80
2018-09-15T20:01:28.479Z,15.70
2018-09-15T20:05:31.320Z,15.60
2018-09-15T20:09:33.996Z,15.50
2018-09-15T20:13:36.879Z,15.30
2018-09-15T20:17:38.400Z,15.30
2018-09-15T20:21:39.940Z,15.20
2018-09-15T20:25:42.527Z,15.10
2018-09-15T20:29:45.215Z,15.00
2018-09-15T20:33:47.979Z,14.90
2018-09-15T20:37:50.691Z,14.80
2018-09-15T20:41:53.241Z,14.70
2018-09-15T20:45:55.992Z,14.70
2018-09-15T20:49:58.639Z,14.60
2018-09-15T20:54:01.369Z,14.60
2018-09-15T20:58:04.091Z,14.60
2018-09-15T21:02:06.694Z,14.50
2018-09-15T21:06:09.435Z,14.40
2018-09-15T21:10:12.053Z,14.30
2018-09-15T21:14:14.757Z,14.20
2018-09-15T21:18:17.297Z,14.10
2018-09-15T21:22:19.978Z,14.00
2018-09-15T21:26:22.575Z,13.90
2018-09-15T21:30:25.697Z,13.80
2018-09-15T21:34:28.429Z,13.70
2018-09-15T21:38:31.037Z,13.70
2018-09-15T21:42:33.785Z,13.60
2018-09-15T21:46:36.753Z,13.60
2018-09-15T21:50:39.419Z,13.50
2018-09-15T21:54:42.911Z,13.50
2018-09-15T21:58:45.725Z,13.40
2018-09-15T22:02:48.453Z,13.40
2018-09-15T22:06:52.752Z,13.30
2018-09-15T22:10:55.441Z,13.30
2018-09-15T22:14:58.089Z,13.20
2018-09-15T22:19:00.719Z,13.20
2018-09-15T22:23:03.415Z,13.20
2018-09-15T22:27:06.062Z,13.10
2018-09-15T22:31:08.755Z,13.10
2018-09-15T22:35:11.397Z,13.00
2018-09-15T22:39:13.996Z,12.90
2018-09-15T22:43:16.807Z,12.90
2018-09-15T22:47:19.379Z,12.90
2018-09-15T22:51:21.966Z,12.90
2018-09-15T22:55:24.582Z,12.90
2018-09-15T22:59:27.342Z,12.80
2018-09-15T23:03:29.916Z,12.90
2018-09-15T23:07:32.513Z,12.90
2018-09-15T23:11:35.174Z,12.90
2018-09-15T23:15:37.976Z,12.80
2018-09-15T23:19:40.620Z,12.90
2018-09-15T23:23:43.206Z,12.80
2018-09-15T23:27:45.928Z,12.70
2018-09-15T23:31:48.588Z,12.70
2018-09-15T23:35:51.235Z,12.60
2018-09-15T23:39:53.791Z,12.60
2018-09-15T23:43:56.447Z,12.60
2018-09-15T23:47:59.028Z,12.60
2018-09-15T23:52:01.610Z,12.50
2018-09-15T23:56:04.312Z,12.50
